Time;durP1;ratioP1;P1;durP2;ratioP2;P2;SDS_P1;SDS_P2;PMS_P1;PMS_P2;Temp;Humidity;BMP_temperature;BMP_pressure;BME280_temperature;BME280_humidity;BME280_pressure;Samples;Min_cycle;Max_cycle;Signal;HPM_P1;HPM_P2
2021/01/01 00:00:38;;;;;;;1.08;0.30;;;4.70;99.90;;;;;;5089690;28;20320;-91
2021/01/01 00:03:05;;;;;;;1.13;0.98;;;4.70;99.90;;;;;;5091430;28;20021;-91
2021/01/01 00:05:30;;;;;;;0.53;0.53;;;4.70;99.90;;;;;;5088312;28;20446;-91
2021/01/01 00:07:56;;;;;;;0.32;0.32;;;4.70;99.90;;;;;;5077244;28;20038;-91
2021/01/01 00:10:22;;;;;;;0.10;0.10;;;4.70;99.90;;;;;;5089753;28;20036;-90
2021/01/01 00:12:48;;;;;;;0.40;0.40;;;4.80;99.90;;;;;;5089249;28;20024;-90
2021/01/01 00:15:14;;;;;;;1.30;1.23;;;4.60;99.90;;;;;;5090691;28;20826;-90
2021/01/01 00:17:40;;;;;;;0.90;0.90;;;4.70;99.90;;;;;;5090442;28;20024;-90
2021/01/01 00:20:08;;;;;;;0.10;0.10;;;4.60;99.90;;;;;;5089460;28;20053;-89
2021/01/01 00:22:34;;;;;;;0.10;0.10;;;4.60;99.90;;;;;;5089468;28;20491;-90
2021/01/01 00:25:00;;;;;;;0.10;0.10;;;4.60;99.90;;;;;;5089311;28;20028;-91
2021/01/01 00:27:30;;;;;;;0.10;0.10;;;4.50;99.90;;;;;;5090708;28;20796;-90
2021/01/01 00:29:56;;;;;;;0.30;0.30;;;4.60;99.90;;;;;;5075165;28;20047;-90
2021/01/01 00:32:22;;;;;;;0.20;0.20;;;4.50;99.90;;;;;;5090666;28;20033;-91
2021/01/01 00:34:48;;;;;;;0.35;0.35;;;4.50;99.90;;;;;;5090285;28;20028;-90
2021/01/01 00:37:14;;;;;;;0.87;0.30;;;4.50;99.90;;;;;;5089564;28;20517;-91
2021/01/01 00:39:40;;;;;;;0.43;0.43;;;4.50;99.90;;;;;;5089318;28;20572;-90
2021/01/01 00:42:06;;;;;;;0.43;0.43;;;4.50;99.90;;;;;;5089360;28;20113;-91
2021/01/01 00:44:32;;;;;;;0.20;0.20;;;4.50;99.90;;;;;;5089432;28;20035;-90
2021/01/01 00:46:59;;;;;;;0.20;0.20;;;4.50;99.90;;;;;;5086508;28;20107;-90
2021/01/01 00:49:24;;;;;;;0.17;0.17;;;4.50;99.90;;;;;;5077384;28;20063;-91
2021/01/01 00:51:50;;;;;;;0.17;0.17;;;4.60;99.90;;;;;;5088901;28;20148;-90
2021/01/01 00:54:16;;;;;;;0.10;0.10;;;4.60;99.90;;;;;;5081845;28;20150;-90
2021/01/01 00:56:42;;;;;;;0.08;0.08;;;4.50;99.90;;;;;;5089111;28;20039;-91
2021/01/01 00:59:08;;;;;;;0.43;0.43;;;4.50;99.90;;;;;;5089200;28;20024;-91
2021/01/01 01:01:34;;;;;;;0.32;0.32;;;4.40;99.90;;;;;;5089674;28;20024;-91
2021/01/01 01:04:00;;;;;;;1.88;1.30;;;4.40;99.90;;;;;;5075116;28;20531;-91
2021/01/01 01:06:27;;;;;;;0.20;0.20;;;4.50;99.90;;;;;;5089140;28;20016;-91
2021/01/01 01:08:54;;;;;;;0.10;0.10;;;4.50;99.90;;;;;;5089882;28;20027;-89
2021/01/01 01:11:25;;;;;;;;;;;4.50;99.90;;;;;;5090446;28;20035;-91
2021/01/01 01:13:52;;;;;;;0.40;0.40;;;4.50;99.90;;;;;;5089706;28;20207;-91
2021/01/01 01:16:26;;;;;;;0.20;0.20;;;4.60;99.90;;;;;;5074609;28;20016;-90
2021/01/01 01:18:53;;;;;;;0.10;0.10;;;4.60;99.90;;;;;;5088110;28;20032;-90
2021/01/01 01:21:20;;;;;;;1.23;1.13;;;4.60;99.90;;;;;;5090119;28;20012;-90
2021/01/01 01:23:46;;;;;;;0.38;0.38;;;4.60;99.90;;;;;;5090125;28;20262;-91
2021/01/01 01:26:12;;;;;;;0.45;0.45;;;4.40;99.90;;;;;;5088280;28;20441;-91
2021/01/01 01:28:38;;;;;;;0.10;0.10;;;4.50;99.90;;;;;;5087247;28;20028;-89
2021/01/01 01:31:04;;;;;;;0.10;0.10;;;4.50;99.90;;;;;;5075927;28;20436;-90
2021/01/01 01:33:31;;;;;;;0.20;0.20;;;4.50;99.90;;;;;;5087317;28;20110;-89
2021/01/01 01:35:57;;;;;;;;;;;4.40;99.90;;;;;;5088027;28;20020;-89
2021/01/01 01:38:23;;;;;;;0.40;0.40;;;4.40;99.90;;;;;;5088026;28;20401;-90
2021/01/01 01:40:49;;;;;;;0.22;0.22;;;4.30;99.90;;;;;;5089365;28;20024;-91
2021/01/01 01:43:15;;;;;;;0.10;0.10;;;4.40;99.90;;;;;;5089566;28;20027;-91
2021/01/01 01:45:41;;;;;;;0.13;0.13;;;4.50;99.90;;;;;;5088673;28;20078;-89
2021/01/01 01:48:12;;;;;;;0.60;0.60;;;4.40;99.90;;;;;;5087199;28;20113;-89
2021/01/01 01:50:38;;;;;;;0.43;0.43;;;4.50;99.90;;;;;;5087757;28;20530;-89
2021/01/01 01:53:05;;;;;;;1.77;1.65;;;4.40;99.90;;;;;;5085600;28;20021;-89
2021/01/01 01:55:31;;;;;;;;;;;4.30;99.90;;;;;;5088152;28;20027;-89
2021/01/01 01:57:58;;;;;;;0.57;0.57;;;4.20;99.90;;;;;;5087794;28;19908;-89
2021/01/01 02:02:55;;;;;;;0.20;0.20;;;4.20;99.90;;;;;;5088819;28;20032;-89
2021/01/01 02:05:21;;;;;;;0.98;0.60;;;4.20;99.90;;;;;;5086612;28;20096;-89
2021/01/01 02:07:48;;;;;;;0.30;0.30;;;4.00;99.90;;;;;;5088637;28;20441;-89
2021/01/01 02:10:14;;;;;;;0.35;0.35;;;4.00;99.90;;;;;;5088194;28;20035;-89
2021/01/01 02:12:41;;;;;;;0.10;0.10;;;4.20;99.90;;;;;;5088769;28;20498;-90
2021/01/01 02:15:07;;;;;;;0.57;0.57;;;4.10;99.90;;;;;;5074748;28;20107;-90
2021/01/01 02:17:33;;;;;;;0.20;0.20;;;4.20;99.90;;;;;;5086730;28;20020;-90
2021/01/01 02:20:17;;;;;;;16.05;0.95;;;4.00;99.90;;;;;;5077340;28;20343;-91
2021/01/01 02:22:43;;;;;;;1.23;1.13;;;4.00;99.90;;;;;;5075124;28;20028;-90
2021/01/01 02:25:11;;;;;;;0.10;0.10;;;4.00;99.90;;;;;;5086804;28;20552;-91
2021/01/01 02:27:37;;;;;;;1.90;0.85;;;4.00;99.90;;;;;;5087691;28;20092;-91
2021/01/01 02:30:04;;;;;;;0.03;0.03;;;4.00;99.90;;;;;;5087734;28;20024;-90
2021/01/01 02:32:30;;;;;;;;;;;4.00;99.90;;;;;;5085293;28;20123;-91
2021/01/01 02:34:56;;;;;;;0.20;0.20;;;4.20;99.90;;;;;;5068651;28;20008;-91
2021/01/01 02:37:22;;;;;;;0.57;0.57;;;4.20;99.90;;;;;;5082049;28;20491;-91
2021/01/01 02:39:48;;;;;;;0.88;0.88;;;4.30;99.90;;;;;;5087314;28;20054;-91
2021/01/01 02:42:16;;;;;;;0.50;0.50;;;4.10;99.90;;;;;;5088705;28;20084;-91
2021/01/01 02:44:43;;;;;;;0.10;0.10;;;4.00;99.90;;;;;;5087323;28;20028;-91
2021/01/01 02:47:09;;;;;;;0.75;0.75;;;4.00;99.90;;;;;;5087312;28;20043;-90
2021/01/01 02:49:35;;;;;;;1.90;0.85;;;4.00;99.90;;;;;;5091343;28;20056;-90
2021/01/01 02:52:02;;;;;;;0.52;0.52;;;3.90;99.90;;;;;;5092992;28;20146;-89
2021/01/01 02:54:28;;;;;;;0.40;0.40;;;3.80;99.90;;;;;;5090433;28;20021;-89
2021/01/01 02:56:53;;;;;;;0.82;0.82;;;3.90;99.90;;;;;;5092529;28;20487;-90
2021/01/01 02:59:20;;;;;;;0.50;0.50;;;3.90;99.90;;;;;;5092436;28;20012;-90
2021/01/01 03:01:46;;;;;;;0.10;0.10;;;3.80;99.90;;;;;;5078282;28;20101;-89
2021/01/01 03:04:12;;;;;;;0.67;0.67;;;3.80;99.90;;;;;;5090464;28;20039;-89
2021/01/01 03:06:38;;;;;;;0.23;0.23;;;3.70;99.90;;;;;;5090716;28;20654;-90
2021/01/01 03:09:04;;;;;;;1.88;1.02;;;3.70;99.90;;;;;;5092087;28;20094;-90
2021/01/01 03:11:31;;;;;;;0.35;0.35;;;3.80;99.90;;;;;;5090575;28;20089;-89
2021/01/01 03:13:57;;;;;;;0.17;0.17;;;3.70;99.90;;;;;;5092474;28;20031;-90
2021/01/01 03:16:23;;;;;;;1.17;0.63;;;3.60;99.90;;;;;;5092148;28;20748;-90
2021/01/01 03:18:49;;;;;;;0.00;0.00;;;3.70;99.90;;;;;;5091865;28;20016;-89
2021/01/01 03:21:17;;;;;;;0.30;0.30;;;3.70;99.90;;;;;;5092362;28;20067;-89
2021/01/01 03:23:43;;;;;;;0.10;0.10;;;3.80;99.90;;;;;;5091461;28;20063;-90
2021/01/01 03:26:09;;;;;;;3.15;1.60;;;3.80;99.90;;;;;;5091969;28;20057;-90
2021/01/01 03:28:35;;;;;;;1.65;0.38;;;3.70;99.90;;;;;;5091649;28;20039;-90
2021/01/01 03:31:01;;;;;;;0.25;0.25;;;3.60;99.90;;;;;;5091720;28;20840;-89
2021/01/01 03:33:27;;;;;;;0.10;0.10;;;3.60;99.90;;;;;;5090258;28;20453;-89
2021/01/01 03:35:53;;;;;;;0.15;0.15;;;3.60;99.90;;;;;;5090450;28;20020;-90
2021/01/01 03:38:19;;;;;;;0.23;0.23;;;3.60;99.90;;;;;;5090143;28;20016;-90
2021/01/01 03:40:46;;;;;;;0.10;0.10;;;3.40;99.90;;;;;;5090106;28;20031;-90
2021/01/01 03:43:12;;;;;;;0.75;0.75;;;3.50;99.90;;;;;;5090618;28;20054;-89
2021/01/01 03:45:38;;;;;;;0.10;0.10;;;3.50;99.90;;;;;;5091432;28;20651;-90
2021/01/01 03:48:05;;;;;;;1.20;0.88;;;3.60;99.90;;;;;;5090487;28;20075;-90
2021/01/01 03:50:30;;;;;;;0.10;0.10;;;3.50;99.90;;;;;;5089736;28;20115;-90
2021/01/01 03:52:56;;;;;;;0.20;0.20;;;3.60;99.90;;;;;;5089214;28;20123;-90
2021/01/01 03:55:22;;;;;;;0.80;0.80;;;3.60;99.90;;;;;;5081807;28;20025;-90
2021/01/01 03:57:48;;;;;;;0.20;0.20;;;3.60;99.90;;;;;;5083969;28;20028;-90
2021/01/01 04:00:14;;;;;;;0.10;0.10;;;3.50;99.90;;;;;;5089714;28;20020;-90
2021/01/01 04:02:40;;;;;;;0.35;0.35;;;3.60;99.90;;;;;;5089840;28;20031;-90
2021/01/01 04:05:07;;;;;;;0.10;0.10;;;3.60;99.90;;;;;;5089801;28;20039;-90
2021/01/01 04:07:32;;;;;;;0.30;0.30;;;3.60;99.90;;;;;;5091060;28;20038;-90
2021/01/01 04:09:58;;;;;;;0.43;0.43;;;3.70;99.90;;;;;;5091079;28;20032;-90
2021/01/01 04:12:24;;;;;;;0.55;0.55;;;3.80;99.90;;;;;;5089768;28;20031;-90
2021/01/01 04:14:50;;;;;;;0.35;0.35;;;3.80;99.90;;;;;;5089087;28;20802;-90
2021/01/01 04:17:16;;;;;;;0.43;0.43;;;3.80;99.90;;;;;;5090112;28;20031;-90
2021/01/01 04:19:42;;;;;;;2.60;0.90;;;3.70;99.90;;;;;;5090870;28;20032;-90
2021/01/01 04:22:08;;;;;;;0.40;0.40;;;3.70;99.90;;;;;;5090455;28;20028;-90
2021/01/01 04:24:33;;;;;;;0.82;0.82;;;3.60;99.90;;;;;;5090956;28;20117;-90
2021/01/01 04:26:59;;;;;;;12.15;0.73;;;3.60;99.90;;;;;;5075253;28;20028;-90
2021/01/01 04:29:25;;;;;;;0.85;0.85;;;3.60;99.90;;;;;;5090900;28;20016;-89
2021/01/01 04:31:51;;;;;;;2.17;0.47;;;3.70;99.90;;;;;;5089382;28;20419;-90
2021/01/01 04:34:17;;;;;;;5.78;1.10;;;3.50;99.90;;;;;;5089416;28;20107;-91
2021/01/01 04:36:43;;;;;;;0.50;0.50;;;3.50;99.90;;;;;;5089077;28;20494;-90
2021/01/01 04:39:09;;;;;;;0.35;0.35;;;3.30;99.90;;;;;;5090461;28;20024;-90
2021/01/01 04:41:36;;;;;;;0.20;0.20;;;3.40;99.90;;;;;;5089244;28;20772;-90
2021/01/01 04:44:03;;;;;;;0.65;0.65;;;3.40;99.90;;;;;;5088995;28;20100;-89
2021/01/01 04:46:30;;;;;;;0.10;0.10;;;3.40;99.90;;;;;;5090457;28;20395;-88
2021/01/01 04:48:56;;;;;;;0.10;0.10;;;3.40;99.90;;;;;;5089997;28;20097;-90
2021/01/01 04:51:22;;;;;;;0.25;0.25;;;3.40;99.90;;;;;;5090039;28;20107;-89
2021/01/01 04:53:48;;;;;;;0.20;0.20;;;3.30;99.90;;;;;;5088377;28;20034;-90
2021/01/01 04:56:14;;;;;;;0.30;0.30;;;3.40;99.90;;;;;;5088384;28;20023;-90
2021/01/01 04:58:40;;;;;;;0.50;0.50;;;3.40;99.90;;;;;;5090404;28;20036;-90
2021/01/01 05:01:06;;;;;;;1.33;0.52;;;3.40;99.90;;;;;;5088784;28;20123;-90
2021/01/01 05:03:31;;;;;;;0.28;0.28;;;3.40;99.90;;;;;;5090364;28;20027;-90
2021/01/01 05:05:57;;;;;;;0.40;0.40;;;3.40;99.90;;;;;;5088842;28;20042;-90
2021/01/01 05:08:23;;;;;;;0.10;0.10;;;3.40;99.90;;;;;;5088963;28;20027;-90
2021/01/01 05:10:50;;;;;;;3.20;1.65;;;3.40;99.90;;;;;;5088757;28;20045;-90
2021/01/01 05:13:20;;;;;;;0.75;0.50;;;3.30;99.90;;;;;;5088461;28;20474;-90
2021/01/01 05:15:48;;;;;;;12.68;1.35;;;3.30;99.90;;;;;;5088824;28;20050;-90
2021/01/01 05:18:27;;;;;;;0.00;0.00;;;3.30;99.90;;;;;;5089759;28;20024;-90
2021/01/01 05:20:58;;;;;;;0.30;0.30;;;3.40;99.90;;;;;;5090007;28;20453;-89
2021/01/01 05:23:26;;;;;;;0.70;0.68;;;3.40;99.90;;;;;;5089841;28;20031;-90
2021/01/01 05:26:15;;;;;;;0.22;0.22;;;3.20;99.90;;;;;;5088653;28;20489;-90
2021/01/01 05:28:50;;;;;;;0.82;0.32;;;3.20;99.90;;;;;;5089578;28;20024;-90
2021/01/01 05:31:19;;;;;;;0.20;0.20;;;3.30;99.90;;;;;;5089468;28;20089;-90
2021/01/01 05:34:03;;;;;;;0.10;0.10;;;3.10;99.90;;;;;;5089305;28;20050;-90
2021/01/01 05:36:36;;;;;;;0.20;0.20;;;3.10;99.90;;;;;;5088318;28;20026;-90
2021/01/01 05:39:05;;;;;;;0.47;0.47;;;3.20;99.90;;;;;;5089111;28;20174;-89
2021/01/01 05:41:35;;;;;;;0.25;0.25;;;3.10;99.90;;;;;;5087510;28;20488;-89
2021/01/01 05:44:19;;;;;;;0.10;0.10;;;3.10;99.90;;;;;;5087871;28;20499;-90
2021/01/01 05:47:07;;;;;;;0.30;0.28;;;3.10;99.90;;;;;;5076223;28;20050;-89
2021/01/01 05:49:38;;;;;;;0.10;0.10;;;3.10;99.90;;;;;;5087600;28;20525;-90
2021/01/01 05:52:17;;;;;;;0.10;0.10;;;3.20;99.90;;;;;;5089043;28;20036;-89
2021/01/01 05:54:45;;;;;;;0.10;0.10;;;3.10;99.90;;;;;;5089024;28;20016;-90
2021/01/01 05:57:12;;;;;;;0.57;0.52;;;3.10;99.90;;;;;;5087551;28;20081;-89
2021/01/01 05:59:39;;;;;;;;;;;3.20;99.90;;;;;;5088226;28;20074;-89
2021/01/01 06:02:06;;;;;;;;;;;3.20;99.90;;;;;;5089585;28;20233;-89
2021/01/01 06:04:32;;;;;;;0.10;0.10;;;3.20;99.90;;;;;;5088883;28;19912;-89
2021/01/01 06:07:03;;;;;;;0.63;0.63;;;3.10;99.90;;;;;;5087554;28;20106;-89
2021/01/01 06:09:31;;;;;;;21.13;0.85;;;3.10;99.90;;;;;;5087295;28;20491;-89
2021/01/01 06:12:06;;;;;;;0.20;0.20;;;3.00;99.90;;;;;;5074395;28;20407;-89
2021/01/01 06:14:42;;;;;;;0.98;0.98;;;2.80;99.90;;;;;;5088506;28;20372;-89
2021/01/01 06:17:11;;;;;;;0.20;0.20;;;2.90;99.90;;;;;;5088617;28;20502;-89
2021/01/01 06:19:54;;;;;;;0.10;0.10;;;2.90;99.90;;;;;;5088927;28;20021;-90
2021/01/01 06:22:24;;;;;;;0.22;0.22;;;3.00;99.90;;;;;;5087477;28;20391;-90
2021/01/01 06:24:51;;;;;;;1.55;0.82;;;3.10;99.90;;;;;;5087300;28;20527;-89
2021/01/01 06:27:19;;;;;;;0.08;0.08;;;3.00;99.90;;;;;;5087355;28;20031;-90
2021/01/01 06:29:53;;;;;;;0.65;0.55;;;2.80;99.90;;;;;;5087336;28;20241;-89
2021/01/01 06:32:20;;;;;;;0.22;0.22;;;2.80;99.90;;;;;;5087609;28;20032;-90
2021/01/01 06:34:46;;;;;;;0.10;0.10;;;2.90;99.90;;;;;;5088568;28;20103;-90
2021/01/01 06:37:37;;;;;;;0.23;0.23;;;2.90;99.90;;;;;;5072634;28;20400;-90
2021/01/01 06:40:07;;;;;;;0.20;0.20;;;3.00;99.90;;;;;;5071566;28;20354;-89
2021/01/01 06:42:53;;;;;;;0.47;0.47;;;3.00;99.90;;;;;;5082811;28;20024;-90
2021/01/01 06:45:39;;;;;;;0.20;0.20;;;3.10;99.90;;;;;;5088318;28;20028;-90
2021/01/01 06:48:28;;;;;;;0.10;0.10;;;3.10;99.90;;;;;;5072650;28;20028;-90
2021/01/01 06:50:54;;;;;;;0.70;0.70;;;3.00;99.90;;;;;;5085984;28;20605;-89
2021/01/01 06:53:27;;;;;;;0.98;0.98;;;3.00;99.90;;;;;;5087424;28;20032;-89
2021/01/01 06:56:06;;;;;;;0.15;0.15;;;3.00;99.90;;;;;;5088497;28;20448;-92
2021/01/01 06:58:32;;;;;;;0.57;0.57;;;3.00;99.90;;;;;;5088055;28;20754;-91
2021/01/01 07:00:57;;;;;;;0.10;0.10;;;2.90;99.90;;;;;;5088135;28;20008;-88
2021/01/01 07:03:26;;;;;;;1.10;1.00;;;3.00;99.90;;;;;;5087868;28;20085;-91
2021/01/01 07:05:56;;;;;;;0.40;0.40;;;2.90;99.90;;;;;;5087062;28;20063;-92
2021/01/01 07:08:43;;;;;;;0.60;0.60;;;2.80;99.90;;;;;;5086700;28;20028;-91
2021/01/01 07:11:08;;;;;;;;;;;2.90;99.90;;;;;;5089034;28;20030;-91
2021/01/01 07:13:47;;;;;;;0.20;0.20;;;2.80;99.90;;;;;;5087746;28;20291;-92
2021/01/01 07:16:14;;;;;;;0.25;0.20;;;2.80;99.90;;;;;;5087088;28;20025;-92
2021/01/01 07:18:40;;;;;;;0.20;0.20;;;2.90;99.90;;;;;;5087798;28;20032;-92
2021/01/01 07:21:08;;;;;;;0.40;0.40;;;2.90;99.90;;;;;;5087039;28;20024;-91
2021/01/01 07:23:35;;;;;;;0.52;0.52;;;2.90;99.90;;;;;;5086391;28;20119;-91
2021/01/01 07:26:02;;;;;;;0.20;0.20;;;2.90;99.90;;;;;;5088111;28;20066;-91
2021/01/01 07:28:28;;;;;;;0.20;0.20;;;2.80;99.90;;;;;;5087361;28;20032;-91
2021/01/01 07:30:54;;;;;;;0.10;0.10;;;2.60;99.90;;;;;;5067820;28;20563;-92
2021/01/01 07:33:24;;;;;;;0.65;0.65;;;2.60;99.90;;;;;;5080494;28;20514;-91
2021/01/01 07:35:51;;;;;;;0.20;0.20;;;2.70;99.90;;;;;;5091335;28;20627;-89
2021/01/01 07:38:19;;;;;;;0.10;0.10;;;2.60;99.90;;;;;;5091551;28;20024;-90
2021/01/01 07:40:45;;;;;;;0.50;0.50;;;2.60;99.90;;;;;;5077946;28;20103;-91
2021/01/01 07:43:11;;;;;;;1.67;0.65;;;2.60;99.90;;;;;;5089747;28;20115;-91
2021/01/01 07:45:37;;;;;;;0.40;0.40;;;2.50;99.90;;;;;;5091464;28;20119;-91
2021/01/01 07:48:04;;;;;;;0.77;0.77;;;2.60;99.90;;;;;;5089631;28;20024;-91
2021/01/01 07:50:31;;;;;;;2.95;1.65;;;2.60;99.90;;;;;;5091745;28;20484;-92
2021/01/01 07:53:07;;;;;;;0.30;0.30;;;2.60;99.90;;;;;;5090978;28;20040;-88
2021/01/01 07:55:33;;;;;;;0.10;0.10;;;2.70;99.90;;;;;;5090541;28;20032;-89
2021/01/01 07:58:13;;;;;;;0.73;0.70;;;2.80;99.90;;;;;;5090002;28;20123;-88
2021/01/01 08:00:43;;;;;;;0.10;0.10;;;2.90;99.90;;;;;;5089920;28;20020;-91
2021/01/01 08:03:09;;;;;;;0.17;0.17;;;3.00;99.90;;;;;;5089608;28;20046;-89
2021/01/01 08:05:36;;;;;;;0.00;0.00;;;2.90;99.90;;;;;;5090007;28;20028;-88
2021/01/01 08:08:16;;;;;;;0.45;0.45;;;2.80;99.90;;;;;;5089609;28;20024;-91
2021/01/01 08:10:44;;;;;;;0.20;0.20;;;2.60;99.90;;;;;;5077918;28;20035;-88
2021/01/01 08:13:20;;;;;;;0.10;0.10;;;2.90;99.90;;;;;;5091226;28;20027;-89
2021/01/01 08:15:47;;;;;;;0.25;0.25;;;3.00;99.90;;;;;;5090312;28;20062;-90
2021/01/01 08:18:18;;;;;;;0.40;0.40;;;3.00;99.90;;;;;;5089755;28;20026;-89
2021/01/01 08:20:49;;;;;;;0.35;0.35;;;2.80;99.90;;;;;;5077514;28;20024;-91
2021/01/01 08:23:17;;;;;;;0.32;0.32;;;3.10;99.90;;;;;;5089265;28;20027;-89
2021/01/01 08:25:45;;;;;;;0.10;0.10;;;3.30;99.90;;;;;;5090644;28;20055;-89
2021/01/01 08:28:15;;;;;;;0.20;0.20;;;3.30;99.90;;;;;;5089446;28;20059;-91
2021/01/01 08:30:43;;;;;;;0.20;0.20;;;3.10;99.90;;;;;;5091127;28;20039;-89
2021/01/01 08:33:09;;;;;;;0.10;0.10;;;3.10;99.90;;;;;;5089219;28;20024;-90
2021/01/01 08:35:35;;;;;;;0.20;0.20;;;3.20;99.90;;;;;;5089414;28;20426;-91
2021/01/01 08:38:18;;;;;;;0.10;0.10;;;3.10;99.90;;;;;;5088789;28;20660;-88
2021/01/01 08:40:52;;;;;;;0.28;0.28;;;3.20;99.90;;;;;;5090444;28;20028;-91
2021/01/01 08:43:17;;;;;;;0.52;0.20;;;3.10;99.90;;;;;;5075316;28;20046;-89
2021/01/01 08:45:44;;;;;;;0.47;0.47;;;3.30;99.90;;;;;;5089453;28;20024;-91
2021/01/01 08:48:11;;;;;;;0.28;0.28;;;3.20;99.90;;;;;;5089672;28;20023;-89
2021/01/01 08:50:44;;;;;;;0.30;0.30;;;3.10;99.90;;;;;;5089339;28;20032;-89
2021/01/01 08:53:10;;;;;;;0.10;0.10;;;2.90;99.90;;;;;;5075545;28;20047;-89
2021/01/01 08:55:36;;;;;;;0.00;0.00;;;3.10;99.90;;;;;;5080546;28;20041;-89
2021/01/01 08:58:13;;;;;;;0.63;0.63;;;3.30;99.90;;;;;;5084141;28;20024;-89
2021/01/01 09:00:40;;;;;;;0.05;0.05;;;3.40;99.90;;;;;;5089073;28;20518;-89
2021/01/01 09:03:07;;;;;;;0.10;0.10;;;3.40;99.90;;;;;;5089450;28;20846;-90
2021/01/01 09:05:34;;;;;;;0.50;0.50;;;3.70;99.90;;;;;;5088824;28;20190;-89
2021/01/01 09:08:22;;;;;;;0.20;0.20;;;3.80;99.90;;;;;;5088554;28;20059;-89
2021/01/01 09:10:49;;;;;;;0.10;0.10;;;3.60;99.90;;;;;;5077211;28;20028;-89
2021/01/01 09:13:19;;;;;;;0.10;0.10;;;4.30;99.90;;;;;;5087973;28;20020;-89
2021/01/01 09:15:46;;;;;;;0.55;0.55;;;4.30;99.90;;;;;;5089671;28;20078;-88
2021/01/01 09:18:13;;;;;;;0.20;0.20;;;4.60;99.90;;;;;;5089429;28;20027;-88
2021/01/01 09:20:42;;;;;;;0.15;0.15;;;4.30;99.90;;;;;;5083809;28;20029;-89
2021/01/01 09:23:10;;;;;;;0.10;0.10;;;4.20;99.90;;;;;;5080457;28;20028;-89
2021/01/01 09:25:37;;;;;;;0.35;0.35;;;4.30;99.90;;;;;;5089315;28;20053;-89
2021/01/01 09:28:05;;;;;;;0.20;0.20;;;4.70;99.90;;;;;;5089530;28;20422;-89
2021/01/01 09:30:33;;;;;;;0.10;0.10;;;5.40;99.90;;;;;;5089379;28;20214;-89
2021/01/01 09:33:03;;;;;;;0.10;0.10;;;5.90;99.90;;;;;;5087876;28;20109;-89
2021/01/01 09:35:30;;;;;;;0.88;0.82;;;7.10;99.90;;;;;;5087760;28;20698;-89
2021/01/01 09:37:57;;;;;;;;;;;6.30;99.90;;;;;;5088440;28;20020;-90
2021/01/01 09:40:28;;;;;;;0.10;0.10;;;5.80;99.90;;;;;;5088800;28;20904;-89
2021/01/01 09:42:55;;;;;;;0.50;0.50;;;5.70;99.90;;;;;;5087834;28;20024;-89
2021/01/01 09:45:21;;;;;;;0.20;0.20;;;6.60;99.90;;;;;;5089226;28;20035;-89
2021/01/01 09:47:47;;;;;;;0.10;0.10;;;6.10;99.90;;;;;;5087865;28;20041;-89
2021/01/01 09:50:13;;;;;;;0.73;0.40;;;6.20;99.90;;;;;;5088904;28;20056;-89
2021/01/01 09:52:40;;;;;;;0.10;0.10;;;8.10;99.90;;;;;;5087925;28;20369;-89
2021/01/01 09:55:07;;;;;;;0.10;0.10;;;10.60;99.90;;;;;;5087091;28;20484;-89
2021/01/01 09:57:33;;;;;;;0.13;0.13;;;14.50;99.90;;;;;;5087497;28;20055;-89
2021/01/01 09:59:59;;;;;;;0.10;0.10;;;9.80;99.90;;;;;;5088833;28;20059;-90
2021/01/01 10:02:25;;;;;;;0.10;0.10;;;7.00;1.00;;;;;;5078738;28;20024;-89
2021/01/01 10:04:51;;;;;;;0.10;0.10;;;6.40;99.90;;;;;;5084823;28;20828;-90
2021/01/01 10:07:18;;;;;;;0.87;0.87;;;5.70;1.00;;;;;;5087297;28;20024;-89
2021/01/01 10:09:44;;;;;;;0.10;0.10;;;4.80;99.90;;;;;;5087034;28;20077;-88
2021/01/01 10:12:13;;;;;;;0.20;0.20;;;5.00;99.90;;;;;;5088968;28;20036;-89
2021/01/01 10:14:39;;;;;;;0.00;0.00;;;5.00;85.90;;;;;;5087466;28;20024;-89
2021/01/01 10:17:05;;;;;;;0.10;0.10;;;5.20;1.00;;;;;;5087822;28;20073;-89
2021/01/01 10:19:31;;;;;;;0.65;0.57;;;5.60;1.00;;;;;;5088447;28;20020;-89
2021/01/01 10:21:57;;;;;;;0.10;0.10;;;5.50;1.00;;;;;;5087716;28;20047;-89
2021/01/01 10:24:23;;;;;;;0.20;0.20;;;5.30;1.00;;;;;;5086890;28;20055;-89
2021/01/01 10:26:50;;;;;;;0.10;0.10;;;6.10;1.00;;;;;;5088538;28;20016;-89
2021/01/01 10:29:16;;;;;;;0.10;0.10;;;6.90;1.00;;;;;;5088622;28;20034;-89
2021/01/01 10:31:43;;;;;;;0.10;0.10;;;6.90;99.90;;;;;;5088937;28;20056;-89
2021/01/01 10:34:10;;;;;;;0.80;0.45;;;6.70;99.90;;;;;;5088396;28;20024;-90
2021/01/01 10:36:36;;;;;;;0.10;0.10;;;7.00;99.90;;;;;;5076846;28;20086;-89
2021/01/01 10:39:03;;;;;;;0.10;0.10;;;7.30;99.90;;;;;;5084484;28;20836;-89
2021/01/01 10:41:29;;;;;;;0.10;0.10;;;6.70;99.90;;;;;;5081424;28;20020;-89
2021/01/01 10:43:54;;;;;;;0.10;0.10;;;6.10;99.90;;;;;;5078806;28;20043;-89
2021/01/01 10:46:20;;;;;;;0.25;0.25;;;5.30;99.90;;;;;;5088533;28;20024;-89
2021/01/01 10:48:46;;;;;;;0.30;0.30;;;4.70;99.90;;;;;;5088140;28;20056;-89
2021/01/01 10:51:23;;;;;;;0.17;0.17;;;4.70;99.90;;;;;;5086991;28;20432;-89
2021/01/01 10:53:49;;;;;;;0.20;0.20;;;4.60;99.90;;;;;;5087508;28;20089;-89
2021/01/01 10:56:25;;;;;;;0.80;0.40;;;4.70;99.90;;;;;;5087698;28;20099;-89
2021/01/01 10:58:52;;;;;;;0.10;0.10;;;4.60;99.90;;;;;;5088153;28;20535;-89
2021/01/01 11:01:22;;;;;;;0.32;0.32;;;4.60;99.90;;;;;;5087175;28;20028;-89
2021/01/01 11:03:49;;;;;;;0.00;0.00;;;4.50;99.90;;;;;;5086650;28;20484;-89
2021/01/01 11:06:15;;;;;;;;;;;4.70;99.90;;;;;;5087682;28;20024;-90
2021/01/01 11:08:42;;;;;;;0.00;0.00;;;4.80;99.90;;;;;;5088717;28;20291;-90
2021/01/01 11:11:12;;;;;;;0.38;0.38;;;4.90;99.90;;;;;;5092524;28;20491;-89
2021/01/01 11:13:49;;;;;;;0.10;0.10;;;5.10;99.90;;;;;;5090117;28;20024;-90
2021/01/01 12:20:21;;;;;;;0.20;0.20;;;5.10;99.90;;;;;;5068066;28;20044;-88
2021/01/01 12:25:07;;;;;;;0.10;0.10;;;5.50;99.90;;;;;;5068365;28;20102;-89
2021/01/01 12:27:35;;;;;;;0.00;0.00;;;5.50;99.90;;;;;;5091185;28;20020;-89
2021/01/01 12:30:04;;;;;;;0.10;0.10;;;5.30;99.90;;;;;;5090584;28;20028;-87
2021/01/01 12:32:31;;;;;;;0.00;0.00;;;5.10;99.90;;;;;;5090651;28;20043;-89
2021/01/01 12:34:57;;;;;;;0.20;0.20;;;5.30;99.90;;;;;;5090943;28;20028;-88
2021/01/01 12:37:23;;;;;;;0.00;0.00;;;5.20;99.90;;;;;;5089050;28;20045;-88
2021/01/01 12:39:49;;;;;;;0.03;0.03;;;5.20;99.90;;;;;;5090199;28;20258;-88
2021/01/01 12:42:14;;;;;;;0.10;0.10;;;5.00;99.90;;;;;;5089041;28;20112;-89
2021/01/01 12:44:40;;;;;;;0.10;0.10;;;5.10;99.90;;;;;;5090311;28;20102;-89
2021/01/01 12:47:07;;;;;;;0.10;0.10;;;5.10;99.90;;;;;;5088628;28;20043;-89
2021/01/01 12:49:32;;;;;;;0.10;0.10;;;4.90;99.90;;;;;;5088366;28;20594;-88
2021/01/01 12:51:58;;;;;;;0.00;0.00;;;4.90;99.90;;;;;;5089887;28;20126;-88
2021/01/01 12:54:24;;;;;;;0.10;0.10;;;4.60;99.90;;;;;;5088270;28;20111;-89
2021/01/01 12:56:50;;;;;;;0.10;0.10;;;4.60;99.90;;;;;;5090132;28;20099;-89
2021/01/01 12:59:15;;;;;;;0.10;0.10;;;4.60;99.90;;;;;;5090065;28;20523;-88
2021/01/01 13:01:41;;;;;;;0.10;0.10;;;4.40;99.90;;;;;;5088494;28;20020;-88
2021/01/01 13:04:07;;;;;;;0.20;0.20;;;4.70;99.90;;;;;;5087820;28;20035;-88
2021/01/01 13:06:33;;;;;;;0.28;0.28;;;4.80;99.90;;;;;;5090322;28;20092;-89
2021/01/01 13:09:01;;;;;;;0.10;0.10;;;4.70;99.90;;;;;;5090295;28;20434;-89
2021/01/01 13:11:28;;;;;;;0.10;0.10;;;4.70;99.90;;;;;;5088339;28;20067;-88
2021/01/01 13:13:54;;;;;;;;;;;4.90;99.90;;;;;;5090398;28;20063;-89
2021/01/01 13:16:27;;;;;;;0.10;0.10;;;5.10;99.90;;;;;;5089948;28;19958;-89
2021/01/01 13:18:54;;;;;;;0.22;0.22;;;5.20;99.90;;;;;;5089240;28;20495;-89
2021/01/01 13:21:26;;;;;;;0.00;0.00;;;5.50;99.90;;;;;;5089513;28;20396;-89
2021/01/01 13:23:52;;;;;;;0.10;0.10;;;5.50;99.90;;;;;;5088127;28;20035;-89
2021/01/01 13:26:19;;;;;;;0.10;0.10;;;5.70;99.90;;;;;;5087821;28;20024;-89
2021/01/01 13:28:45;;;;;;;0.00;0.00;;;5.90;99.90;;;;;;5089535;28;20035;-89
2021/01/01 13:31:11;;;;;;;0.10;0.10;;;5.80;99.90;;;;;;5088772;28;20028;-89
2021/01/01 13:33:37;;;;;;;0.28;0.28;;;5.70;99.90;;;;;;5087569;28;20020;-89
2021/01/01 13:36:03;;;;;;;0.10;0.10;;;6.00;99.90;;;;;;5088097;28;20024;-89
2021/01/01 13:38:28;;;;;;;0.10;0.10;;;5.60;99.90;;;;;;5087731;28;20046;-91
2021/01/01 13:40:54;;;;;;;0.10;0.10;;;5.10;99.90;;;;;;5088065;28;20487;-89
2021/01/01 13:43:20;;;;;;;0.10;0.10;;;4.70;99.90;;;;;;5087912;28;20020;-89
2021/01/01 13:45:46;;;;;;;0.10;0.10;;;4.70;99.90;;;;;;5089124;28;20082;-89
2021/01/01 13:48:11;;;;;;;0.00;0.00;;;4.80;99.90;;;;;;5088977;28;20216;-89
2021/01/01 13:50:37;;;;;;;1.30;1.20;;;5.00;99.90;;;;;;5088747;28;20036;-89
2021/01/01 13:53:03;;;;;;;0.10;0.10;;;5.00;99.90;;;;;;5087144;28;20036;-88
2021/01/01 13:55:28;;;;;;;0.08;0.08;;;4.90;99.90;;;;;;5087680;28;20020;-89
2021/01/01 13:57:54;;;;;;;0.10;0.10;;;4.50;99.90;;;;;;5087308;28;20023;-88
2021/01/01 14:00:21;;;;;;;0.20;0.20;;;4.50;99.90;;;;;;5087319;28;20027;-89
2021/01/01 14:02:46;;;;;;;0.20;0.20;;;4.40;99.90;;;;;;5087600;28;20028;-89
2021/01/01 14:05:12;;;;;;;0.10;0.10;;;4.50;99.90;;;;;;5082828;28;20341;-89
2021/01/01 14:07:39;;;;;;;0.20;0.20;;;4.30;99.90;;;;;;5079594;28;20085;-89
2021/01/01 14:10:05;;;;;;;0.10;0.10;;;4.10;99.90;;;;;;5087699;28;20111;-89
2021/01/01 14:12:31;;;;;;;0.10;0.10;;;4.00;99.90;;;;;;5087652;28;20075;-89